Gustavus Airport Gustavus US
ICAO: PAGS
IATA:
Category: Medium
Scheduled Services:

Elevation: 35 ft
TransAlt. 18000 ft.

Airport Communications:
AWOS 3:125.9
ANCHORAGE CNTR:133.2
CTAF:122.5
JUNEAU RDO:122.65

PAGS Zoom In..

If you have problems with the map follow the link
https://www.worldairports.se/pages/airport.php?
ICAO=PAGS

Runways:

(A) RW 02 length 3146 ft width 60 ft
---- / hdg 21

(B) RW 11 length 6721 ft width 150 ft
---- / hdg 115

(C) RW 20 length 3146 ft width 60 ft
---- / hdg 201

(D) RW 29 length 6721 ft width 150 ft
---- / hdg 295

Location; PAGS
Day. 23 / Time. 17.56 Zulu
* Altimeter: 29.44
* Temperature: 13° c. 55.4°f.
* Wind from: 140° Speed 13 kn.
Dewpoint: 08° c.
Visibility: 10 Statute Miles.
Clouds: Overcast 4400 ft.
Conditions: Light Rain.

PAGS 231756Z AUTO 14013KT 10SM -RA OVC044 13/08 A2944 RMK AO2 SLP969 P0000 60011 T01330078 10139 20072 53005


Wind From 140°
Speed 13 kn.

 
 
jpsmedia.com for Web Design worldairports.se 2018   terms of use